createdAt,value
2023-04-27T00:00:43.082Z,5.58
2023-04-27T00:01:43.233Z,5.63
2023-04-27T00:02:43.264Z,5.65
2023-04-27T00:03:43.371Z,5.60
2023-04-27T00:04:43.489Z,5.56
2023-04-27T00:05:43.468Z,5.47
2023-04-27T00:06:43.453Z,5.51
2023-04-27T00:07:43.492Z,5.54
2023-04-27T00:08:43.556Z,5.51
2023-04-27T00:09:44.116Z,5.56
2023-04-27T00:10:43.652Z,5.54
2023-04-27T00:11:43.731Z,5.57
2023-04-27T00:12:43.803Z,5.56
2023-04-27T00:13:43.853Z,5.52
2023-04-27T00:14:43.911Z,5.48
2023-04-27T00:15:43.965Z,5.50
2023-04-27T00:16:44.109Z,5.53
2023-04-27T00:17:44.098Z,5.45
2023-04-27T00:18:44.132Z,5.41
2023-04-27T00:19:44.194Z,5.44
2023-04-27T00:20:44.248Z,5.35
2023-04-27T00:21:44.310Z,5.42
2023-04-27T00:22:44.390Z,5.37
2023-04-27T00:23:44.437Z,5.40
2023-04-27T00:24:44.504Z,5.37
2023-04-27T00:25:44.548Z,5.35
2023-04-27T00:26:44.587Z,5.39
2023-04-27T00:27:44.665Z,5.41
2023-04-27T00:28:44.711Z,5.35
2023-04-27T00:29:44.780Z,5.37
2023-04-27T00:30:44.843Z,5.40
2023-04-27T00:31:45.702Z,5.27
2023-04-27T00:32:45.017Z,5.25
2023-04-27T00:33:45.012Z,5.32
2023-04-27T00:34:45.199Z,5.27
2023-04-27T00:35:45.127Z,5.35
2023-04-27T00:36:45.191Z,5.27
2023-04-27T00:37:45.251Z,5.28
2023-04-27T00:38:45.294Z,5.29
2023-04-27T00:39:45.346Z,5.23
2023-04-27T00:40:45.452Z,5.27
2023-04-27T00:41:45.460Z,5.23
2023-04-27T00:42:45.646Z,5.21
2023-04-27T00:43:45.667Z,5.20
2023-04-27T00:44:45.646Z,5.22
2023-04-27T00:45:45.737Z,5.25
2023-04-27T00:46:45.762Z,5.19
2023-04-27T00:47:46.046Z,5.26
2023-04-27T00:48:45.884Z,5.25
2023-04-27T00:49:48.634Z,5.25
2023-04-27T00:50:45.940Z,5.24
2023-04-27T00:51:45.934Z,5.30
2023-04-27T00:52:46.634Z,5.20
2023-04-27T00:53:45.924Z,5.28
2023-04-27T00:54:45.924Z,5.22
2023-04-27T00:55:45.905Z,5.17
2023-04-27T00:56:45.899Z,5.09
2023-04-27T00:57:45.980Z,5.18
2023-04-27T00:58:45.890Z,5.09
2023-04-27T00:59:45.881Z,5.10
2023-04-27T01:00:45.870Z,5.05
2023-04-27T01:01:45.898Z,5.03
2023-04-27T01:02:45.977Z,5.11
2023-04-27T01:03:45.994Z,5.06
2023-04-27T01:04:45.838Z,5.05
2023-04-27T01:05:45.830Z,5.05
2023-04-27T01:06:45.833Z,5.03
2023-04-27T01:07:45.822Z,5.06
2023-04-27T01:08:45.813Z,5.03
2023-04-27T01:09:45.893Z,5.02
2023-04-27T01:10:45.808Z,4.95
2023-04-27T01:11:45.795Z,4.98
2023-04-27T01:12:45.782Z,5.00
2023-04-27T01:13:45.779Z,4.97
2023-04-27T01:14:45.806Z,4.96
2023-04-27T01:15:45.767Z,4.93
2023-04-27T01:16:45.795Z,4.92
2023-04-27T01:17:45.788Z,4.90
2023-04-27T01:18:45.774Z,4.87
2023-04-27T01:19:45.794Z,4.85
2023-04-27T01:20:45.853Z,4.87
2023-04-27T01:21:45.904Z,4.90
2023-04-27T01:22:45.970Z,4.91
2023-04-27T01:23:46.029Z,4.92
2023-04-27T01:24:46.110Z,4.90
2023-04-27T01:25:46.155Z,4.87
2023-04-27T01:26:46.204Z,4.89
2023-04-27T01:27:46.269Z,4.84
2023-04-27T01:28:46.400Z,4.90
2023-04-27T01:29:46.414Z,4.85
2023-04-27T01:30:46.458Z,4.78
2023-04-27T01:31:46.562Z,4.81
2023-04-27T01:32:46.687Z,4.81
2023-04-27T01:33:46.643Z,4.78
2023-04-27T01:34:46.706Z,4.77
2023-04-27T01:35:46.768Z,4.84
2023-04-27T01:36:46.818Z,4.73
2023-04-27T01:37:47.149Z,4.74
2023-04-27T01:38:46.938Z,4.71
2023-04-27T01:39:47.003Z,4.74
2023-04-27T01:40:47.052Z,4.71
2023-04-27T01:41:47.119Z,4.68
2023-04-27T01:42:47.172Z,4.74
2023-04-27T01:43:47.229Z,4.73
2023-04-27T01:44:47.299Z,4.67
2023-04-27T01:45:47.359Z,4.69
2023-04-27T01:46:47.493Z,4.69
2023-04-27T01:47:47.695Z,4.66
2023-04-27T01:48:47.529Z,4.70
2023-04-27T01:49:47.590Z,4.65
2023-04-27T01:50:47.663Z,4.68
2023-04-27T01:51:47.733Z,4.61
2023-04-27T01:52:47.774Z,4.61
2023-04-27T01:53:47.921Z,4.63
2023-04-27T01:54:47.945Z,4.59
2023-04-27T01:55:47.955Z,4.58
2023-04-27T01:56:48.003Z,4.56
2023-04-27T01:57:48.131Z,4.57
2023-04-27T01:58:48.138Z,4.52
2023-04-27T01:59:48.250Z,4.55
2023-04-27T02:00:48.237Z,4.55
2023-04-27T02:01:48.693Z,4.60
2023-04-27T02:02:48.511Z,4.67
2023-04-27T02:03:48.502Z,4.56
2023-04-27T02:04:48.498Z,4.53
2023-04-27T02:05:48.532Z,4.59
2023-04-27T02:06:48.597Z,4.54
2023-04-27T02:07:48.656Z,4.57
2023-04-27T02:08:48.760Z,4.52
2023-04-27T02:09:48.819Z,4.55
2023-04-27T02:10:48.856Z,4.59
2023-04-27T02:11:48.907Z,4.54
2023-04-27T02:12:48.963Z,4.56
2023-04-27T02:13:49.013Z,4.60
2023-04-27T02:14:49.176Z,4.55
2023-04-27T02:15:49.168Z,4.51
2023-04-27T02:16:49.197Z,4.51
2023-04-27T02:17:49.336Z,4.52
2023-04-27T02:18:50.163Z,4.46
2023-04-27T02:19:49.381Z,4.44
2023-04-27T02:20:49.448Z,4.47
2023-04-27T02:21:49.508Z,4.44
2023-04-27T02:22:49.570Z,4.49
2023-04-27T02:23:49.608Z,4.50
2023-04-27T02:24:49.668Z,4.48
2023-04-27T02:25:49.732Z,4.47
2023-04-27T02:26:49.784Z,4.47
2023-04-27T02:27:49.859Z,4.50
2023-04-27T02:28:49.887Z,4.43
2023-04-27T02:29:49.942Z,4.44
2023-04-27T02:30:50.001Z,4.42
2023-04-27T02:31:50.111Z,4.37
2023-04-27T02:32:50.301Z,4.38
2023-04-27T02:33:50.187Z,4.41
2023-04-27T02:34:50.256Z,4.36
2023-04-27T02:35:50.315Z,4.36
2023-04-27T02:36:50.378Z,4.39
2023-04-27T02:37:50.420Z,4.36
2023-04-27T02:38:50.487Z,4.40
2023-04-27T02:39:50.535Z,4.36
2023-04-27T02:40:50.598Z,4.28
2023-04-27T02:41:50.665Z,4.28
2023-04-27T02:42:50.712Z,4.25
2023-04-27T02:43:50.772Z,4.31
2023-04-27T02:44:50.818Z,4.30
2023-04-27T02:45:50.874Z,4.31
2023-04-27T02:46:50.972Z,4.29
2023-04-27T02:47:51.057Z,4.30
2023-04-27T02:48:51.030Z,4.27
2023-04-27T02:49:51.100Z,4.31
2023-04-27T02:50:51.156Z,4.25
2023-04-27T02:51:52.183Z,4.20
2023-04-27T02:52:51.263Z,4.16
2023-04-27T02:53:51.323Z,4.22
2023-04-27T02:54:51.385Z,4.15
2023-04-27T02:55:51.435Z,4.20
2023-04-27T02:56:51.486Z,4.20
2023-04-27T02:57:51.540Z,4.20
2023-04-27T02:58:51.588Z,4.20
2023-04-27T02:59:51.661Z,4.17
2023-04-27T03:00:51.782Z,4.19
2023-04-27T03:01:51.786Z,4.12
2023-04-27T03:02:51.952Z,4.15
2023-04-27T03:03:52.113Z,4.12
2023-04-27T03:04:51.949Z,4.12
2023-04-27T03:05:51.990Z,4.11
2023-04-27T03:06:52.048Z,4.16
2023-04-27T03:07:52.102Z,4.12
2023-04-27T03:08:52.239Z,4.14
2023-04-27T03:09:52.217Z,4.24
2023-04-27T03:10:52.316Z,4.17
2023-04-27T03:11:52.346Z,4.14
2023-04-27T03:12:52.378Z,4.09
2023-04-27T03:13:52.439Z,4.15
2023-04-27T03:14:52.565Z,4.07
2023-04-27T03:15:52.541Z,4.04
2023-04-27T03:16:52.774Z,4.00
2023-04-27T03:17:52.712Z,4.03
2023-04-27T03:18:52.699Z,4.05
2023-04-27T03:19:52.752Z,4.09
2023-04-27T03:20:52.797Z,4.03
2023-04-27T03:21:52.859Z,4.04
2023-04-27T03:22:52.959Z,4.04
2023-04-27T03:23:52.960Z,4.08
2023-04-27T03:24:53.000Z,4.04
2023-04-27T03:25:53.049Z,4.04
2023-04-27T03:26:53.134Z,4.02
2023-04-27T03:27:53.146Z,3.99
2023-04-27T03:28:53.186Z,4.02
2023-04-27T03:29:53.236Z,4.01
2023-04-27T03:30:53.291Z,4.01
2023-04-27T03:31:53.373Z,4.01
2023-04-27T03:32:53.417Z,4.06
2023-04-27T03:33:54.201Z,4.12
2023-04-27T03:34:53.453Z,4.07
2023-04-27T03:35:53.491Z,4.10
2023-04-27T03:36:53.544Z,4.06
2023-04-27T03:37:53.590Z,4.04
2023-04-27T03:38:53.631Z,4.03
2023-04-27T03:39:53.679Z,4.01
2023-04-27T03:40:53.723Z,4.08
2023-04-27T03:41:53.762Z,4.12
2023-04-27T03:42:53.799Z,4.06
2023-04-27T03:43:53.840Z,4.00
2023-04-27T03:44:53.876Z,4.01
2023-04-27T03:45:53.926Z,4.04
2023-04-27T03:46:53.958Z,4.04
2023-04-27T03:47:54.036Z,3.98
2023-04-27T03:48:54.051Z,4.00
2023-04-27T03:49:54.081Z,4.00
2023-04-27T03:50:54.132Z,3.98
2023-04-27T03:51:54.173Z,4.03
2023-04-27T03:52:54.212Z,3.92
2023-04-27T03:53:54.247Z,3.96
2023-04-27T03:54:54.298Z,3.95
2023-04-27T03:55:54.340Z,4.00
2023-04-27T03:56:54.378Z,3.94
2023-04-27T03:57:54.418Z,3.93
2023-04-27T03:58:54.459Z,3.89
2023-04-27T03:59:54.496Z,3.92
2023-04-27T04:00:55.274Z,3.95
2023-04-27T04:01:54.604Z,3.93
2023-04-27T04:02:54.691Z,3.90
2023-04-27T04:03:54.684Z,3.88
2023-04-27T04:04:54.772Z,3.86
2023-04-27T04:05:54.735Z,3.96
2023-04-27T04:06:54.778Z,3.95
2023-04-27T04:07:54.828Z,3.89
2023-04-27T04:08:54.919Z,3.93
2023-04-27T04:09:54.926Z,3.91
2023-04-27T04:10:54.941Z,3.82
2023-04-27T04:11:54.968Z,3.85
2023-04-27T04:12:55.012Z,3.91
2023-04-27T04:13:55.050Z,3.93
2023-04-27T04:14:55.101Z,3.85
2023-04-27T04:15:55.179Z,3.83
2023-04-27T04:16:55.162Z,3.86
2023-04-27T04:17:55.261Z,3.76
2023-04-27T04:18:55.264Z,3.75
2023-04-27T04:19:55.279Z,3.77
2023-04-27T04:20:55.330Z,3.78
2023-04-27T04:21:55.368Z,3.75
2023-04-27T04:22:55.414Z,3.79
2023-04-27T04:23:55.465Z,3.75
2023-04-27T04:24:55.492Z,3.78
2023-04-27T04:25:55.532Z,3.73
2023-04-27T04:26:55.577Z,3.71
2023-04-27T04:27:55.632Z,3.76
2023-04-27T04:28:55.670Z,3.72
2023-04-27T04:29:55.713Z,3.73
2023-04-27T04:30:55.780Z,3.71
2023-04-27T04:31:55.801Z,3.67
2023-04-27T04:32:55.868Z,3.69
2023-04-27T04:33:55.960Z,3.65
2023-04-27T04:34:55.912Z,3.71
2023-04-27T04:35:55.969Z,3.70
2023-04-27T04:36:55.992Z,3.62
2023-04-27T04:37:56.041Z,3.67
2023-04-27T04:38:56.062Z,3.69
2023-04-27T04:39:56.107Z,3.63
2023-04-27T04:40:56.140Z,3.63
2023-04-27T04:41:56.186Z,3.61
2023-04-27T04:42:56.276Z,3.62
2023-04-27T04:43:56.259Z,3.58
2023-04-27T04:44:56.333Z,3.56
2023-04-27T04:45:56.327Z,3.59
2023-04-27T04:46:56.438Z,3.55
2023-04-27T04:47:56.419Z,3.62
2023-04-27T04:48:56.446Z,3.53
2023-04-27T04:49:56.491Z,3.50
2023-04-27T04:50:56.530Z,3.56
2023-04-27T04:51:56.564Z,3.54
2023-04-27T04:52:56.613Z,3.42
2023-04-27T04:53:56.688Z,3.48
2023-04-27T04:54:56.695Z,3.50
2023-04-27T04:55:56.728Z,3.51
2023-04-27T04:56:56.773Z,3.52
2023-04-27T04:57:56.831Z,3.51
2023-04-27T04:58:56.863Z,3.52
2023-04-27T04:59:56.905Z,3.49
2023-04-27T05:00:56.949Z,3.46
2023-04-27T05:01:57.082Z,3.54
2023-04-27T05:02:57.133Z,3.54
2023-04-27T05:03:57.238Z,3.51
2023-04-27T05:04:57.108Z,3.51
2023-04-27T05:05:57.141Z,3.42
2023-04-27T05:06:57.177Z,3.38
2023-04-27T05:07:57.226Z,3.44
2023-04-27T05:08:57.260Z,3.47
2023-04-27T05:09:57.300Z,3.40
2023-04-27T05:10:57.403Z,3.38
2023-04-27T05:11:57.385Z,3.34
2023-04-27T05:12:57.434Z,3.45
2023-04-27T05:13:57.474Z,3.49
2023-04-27T05:14:57.557Z,3.45
2023-04-27T05:15:57.583Z,3.43
2023-04-27T05:16:57.612Z,3.45
2023-04-27T05:17:57.686Z,3.41
2023-04-27T05:18:57.713Z,3.48
2023-04-27T05:19:57.750Z,3.43
2023-04-27T05:20:57.808Z,3.39
2023-04-27T05:21:57.958Z,3.38
2023-04-27T05:22:57.913Z,3.35
2023-04-27T05:23:57.999Z,3.38
2023-04-27T05:24:57.990Z,3.34
2023-04-27T05:25:58.036Z,3.43
2023-04-27T05:26:59.269Z,3.45
2023-04-27T05:27:58.079Z,3.42
2023-04-27T05:28:58.073Z,3.36
2023-04-27T05:29:58.068Z,3.39
2023-04-27T05:30:58.049Z,3.44
2023-04-27T05:31:58.112Z,3.47
2023-04-27T05:32:58.092Z,3.67
2023-04-27T05:33:58.023Z,3.70
2023-04-27T05:34:58.021Z,3.84
2023-04-27T05:35:58.190Z,4.17
2023-04-27T05:36:58.008Z,4.34
2023-04-27T05:37:58.014Z,4.57
2023-04-27T05:38:57.998Z,4.78
2023-04-27T05:39:57.986Z,5.02
2023-04-27T05:40:57.991Z,5.51
2023-04-27T05:41:57.965Z,5.83
2023-04-27T05:42:57.958Z,6.35
2023-04-27T05:43:57.964Z,7.21
2023-04-27T05:44:57.953Z,7.74
2023-04-27T05:45:57.995Z,8.01
2023-04-27T05:46:57.947Z,8.75
2023-04-27T05:47:57.949Z,8.99
2023-04-27T05:48:57.940Z,9.66
2023-04-27T05:49:57.917Z,10.06
2023-04-27T05:50:57.973Z,11.37
2023-04-27T05:51:57.899Z,12.44
2023-04-27T05:52:58.260Z,12.88
2023-04-27T05:53:57.903Z,13.21
2023-04-27T05:54:57.880Z,14.07
2023-04-27T05:55:57.878Z,14.70
2023-04-27T05:56:58.773Z,15.61
2023-04-27T05:58:07.845Z,16.29
2023-04-27T05:59:00.573Z,16.35
2023-04-27T05:59:57.860Z,16.39
2023-04-27T06:00:57.841Z,16.76
2023-04-27T06:01:57.888Z,17.42
2023-04-27T06:02:58.078Z,18.90
2023-04-27T06:03:57.909Z,21.26
2023-04-27T06:04:57.840Z,22.56
2023-04-27T06:05:59.091Z,23.69
2023-04-27T06:06:57.805Z,24.02
2023-04-27T06:07:57.809Z,24.87
2023-04-27T06:08:57.797Z,25.10
2023-04-27T06:09:57.785Z,26.25
2023-04-27T06:10:58.269Z,28.54
2023-04-27T06:11:57.768Z,29.41
2023-04-27T06:12:57.762Z,31.48
2023-04-27T06:13:57.758Z,32.21
2023-04-27T06:14:57.765Z,33.33
2023-04-27T06:15:57.752Z,33.82
2023-04-27T06:16:57.725Z,35.20
2023-04-27T06:17:57.831Z,36.01
2023-04-27T06:18:57.723Z,37.38
2023-04-27T06:19:57.725Z,40.56
2023-04-27T06:20:57.716Z,42.73
2023-04-27T06:21:57.717Z,42.24
2023-04-27T06:22:57.776Z,45.11
2023-04-27T06:23:57.748Z,46.35
2023-04-27T06:24:57.770Z,48.16
2023-04-27T06:25:57.865Z,49.46
2023-04-27T06:26:57.807Z,51.11
2023-04-27T06:27:57.856Z,33.16
2023-04-27T06:28:57.908Z,21.20
2023-04-27T06:29:57.931Z,14.70
2023-04-27T06:30:57.963Z,10.07
2023-04-27T06:31:58.035Z,7.02
2023-04-27T06:32:58.044Z,5.03
2023-04-27T06:33:58.067Z,3.82
2023-04-27T06:34:58.107Z,3.06
2023-04-27T06:35:58.160Z,2.46
2023-04-27T06:36:58.223Z,2.10
2023-04-27T06:37:58.247Z,1.89
2023-04-27T06:38:58.257Z,1.62
2023-04-27T06:39:58.259Z,1.53
2023-04-27T06:40:58.289Z,1.38
2023-04-27T06:41:58.298Z,1.32
2023-04-27T06:42:58.313Z,1.22
2023-04-27T06:43:59.128Z,1.10
2023-04-27T06:44:58.353Z,1.05
2023-04-27T06:45:58.798Z,0.94
2023-04-27T06:46:58.385Z,0.90
2023-04-27T06:47:58.601Z,0.87
2023-04-27T06:48:58.413Z,0.84
2023-04-27T06:49:58.480Z,0.85
2023-04-27T06:50:58.476Z,0.80
2023-04-27T06:51:58.498Z,0.76
2023-04-27T06:52:58.589Z,0.75
2023-04-27T06:53:58.520Z,0.73
2023-04-27T06:54:58.550Z,0.70
2023-04-27T06:55:58.578Z,0.69
2023-04-27T06:56:58.628Z,0.69
2023-04-27T06:57:58.786Z,0.69
2023-04-27T06:58:58.786Z,0.69
2023-04-27T06:59:58.796Z,0.68
2023-04-27T07:00:58.714Z,0.67
2023-04-27T07:01:58.909Z,0.65
2023-04-27T07:02:58.872Z,0.64
2023-04-27T07:03:58.895Z,0.65
2023-04-27T07:04:58.864Z,0.68
2023-04-27T07:05:58.826Z,0.67
2023-04-27T07:06:58.857Z,0.66
2023-04-27T07:08:00.932Z,0.66
2023-04-27T07:08:58.831Z,0.66
2023-04-27T07:09:58.822Z,0.67
2023-04-27T07:10:58.818Z,0.72
2023-04-27T07:11:58.871Z,0.82
2023-04-27T07:12:58.876Z,0.97
2023-04-27T07:13:58.788Z,1.07
2023-04-27T07:14:58.792Z,1.01
2023-04-27T07:15:58.801Z,1.09
2023-04-27T07:16:58.769Z,1.14
2023-04-27T07:17:58.804Z,1.32
2023-04-27T07:18:58.752Z,1.46
2023-04-27T07:19:58.749Z,1.33
2023-04-27T07:20:58.745Z,1.18
2023-04-27T07:21:58.735Z,1.23
2023-04-27T07:22:58.723Z,1.20
2023-04-27T07:23:58.726Z,1.21
2023-04-27T07:24:58.715Z,1.15
2023-04-27T07:25:58.709Z,1.21
2023-04-27T07:26:58.701Z,1.16
2023-04-27T07:27:58.896Z,1.17
2023-04-27T07:28:58.688Z,1.17
2023-04-27T07:29:58.749Z,1.18
2023-04-27T07:30:58.739Z,1.12
2023-04-27T07:31:58.849Z,1.15
2023-04-27T07:32:58.840Z,1.13
2023-04-27T07:33:58.841Z,1.16
2023-04-27T07:34:58.900Z,1.20
2023-04-27T07:35:58.934Z,1.08
2023-04-27T07:36:58.914Z,1.16
2023-04-27T07:37:58.929Z,1.17
2023-04-27T07:38:58.960Z,1.10
2023-04-27T07:39:58.996Z,1.06
2023-04-27T07:40:59.043Z,1.06
2023-04-27T07:41:59.032Z,1.28
2023-04-27T07:42:59.065Z,1.50
2023-04-27T07:43:59.077Z,1.63
2023-04-27T07:44:59.078Z,1.88
2023-04-27T07:45:59.333Z,2.24
2023-04-27T07:46:59.124Z,2.41
2023-04-27T07:47:59.807Z,2.64
2023-04-27T07:48:59.155Z,2.89
2023-04-27T07:49:59.151Z,3.08
2023-04-27T07:50:59.144Z,3.39
2023-04-27T07:51:59.145Z,3.45
2023-04-27T07:52:59.157Z,3.67
2023-04-27T07:53:59.213Z,3.85
2023-04-27T07:54:59.249Z,4.04
2023-04-27T07:55:59.322Z,4.23
2023-04-27T07:56:59.369Z,4.15
2023-04-27T07:57:59.441Z,4.40
2023-04-27T07:58:59.504Z,4.70
2023-04-27T07:59:59.645Z,4.96
2023-04-27T08:00:59.619Z,5.17
2023-04-27T08:02:14.995Z,5.52
2023-04-27T08:03:00.979Z,5.53
2023-04-27T08:03:59.912Z,5.56
2023-04-27T08:04:59.848Z,5.63
2023-04-27T08:06:00.211Z,5.87
2023-04-27T08:06:59.852Z,6.22
2023-04-27T08:07:59.719Z,6.06
2023-04-27T08:08:59.630Z,6.10
2023-04-27T08:09:59.641Z,6.42
2023-04-27T08:10:59.616Z,6.37
2023-04-27T08:11:59.599Z,6.41
2023-04-27T08:12:59.603Z,6.93
2023-04-27T08:13:59.594Z,7.00
2023-04-27T08:15:00.270Z,7.23
2023-04-27T08:15:59.691Z,7.53
2023-04-27T08:16:59.756Z,7.22
2023-04-27T08:17:59.881Z,7.40
2023-04-27T08:19:00.678Z,6.89
2023-04-27T08:19:59.872Z,6.55
2023-04-27T08:20:59.941Z,5.96
2023-04-27T08:22:00.056Z,6.13
2023-04-27T08:23:00.088Z,6.35
2023-04-27T08:24:00.151Z,6.31
2023-04-27T08:25:00.180Z,5.06
2023-04-27T08:26:00.211Z,4.19
2023-04-27T08:27:00.276Z,2.92
2023-04-27T08:28:00.281Z,2.76
2023-04-27T08:29:01.963Z,2.63
2023-04-27T08:30:01.258Z,2.65
2023-04-27T08:31:00.326Z,2.70
2023-04-27T08:32:01.256Z,2.92
2023-04-27T08:33:00.312Z,3.36
2023-04-27T08:34:00.884Z,4.16
2023-04-27T08:35:00.336Z,4.15
2023-04-27T08:36:00.330Z,4.48
2023-04-27T08:37:00.244Z,4.35
2023-04-27T08:38:00.261Z,4.76
2023-04-27T08:39:00.305Z,5.06
2023-04-27T08:40:00.241Z,5.41
2023-04-27T08:41:07.478Z,5.80
2023-04-27T08:42:01.211Z,5.82
2023-04-27T08:43:00.302Z,5.91
2023-04-27T08:44:00.265Z,6.11
2023-04-27T08:45:00.222Z,6.64
2023-04-27T08:46:00.320Z,7.08
2023-04-27T08:47:00.195Z,7.44
2023-04-27T08:48:00.257Z,7.71
2023-04-27T08:49:00.178Z,7.94
2023-04-27T08:50:00.202Z,8.08
2023-04-27T08:51:00.196Z,8.29
2023-04-27T08:52:00.152Z,8.92
2023-04-27T08:53:00.750Z,9.09
2023-04-27T08:54:00.151Z,9.50
2023-04-27T08:55:00.136Z,9.78
2023-04-27T08:56:00.144Z,10.02
2023-04-27T08:57:00.825Z,10.24
2023-04-27T08:58:00.106Z,10.71
2023-04-27T08:59:00.144Z,10.99
2023-04-27T09:00:00.149Z,11.28
2023-04-27T09:01:00.097Z,11.86
2023-04-27T09:02:00.153Z,12.12
2023-04-27T09:03:00.235Z,12.40
2023-04-27T09:04:00.415Z,12.75
2023-04-27T09:05:00.348Z,13.49
2023-04-27T09:06:05.221Z,13.90
2023-04-27T09:07:01.150Z,13.93
2023-04-27T09:08:00.163Z,14.08
2023-04-27T09:09:00.159Z,14.38
2023-04-27T09:10:00.123Z,14.71
2023-04-27T09:11:00.139Z,15.80
2023-04-27T09:12:00.125Z,15.98
2023-04-27T09:13:00.310Z,16.21
2023-04-27T09:14:00.147Z,16.44
2023-04-27T09:15:01.135Z,16.80
2023-04-27T09:16:00.766Z,16.08
2023-04-27T09:17:00.405Z,16.40
2023-04-27T09:18:00.298Z,16.67
2023-04-27T09:19:00.297Z,15.06
2023-04-27T09:20:00.307Z,12.77
2023-04-27T09:21:00.351Z,14.43
2023-04-27T09:22:00.364Z,13.50
2023-04-27T09:23:00.448Z,14.49
2023-04-27T09:24:00.404Z,14.83
2023-04-27T09:25:00.425Z,14.76
2023-04-27T09:26:00.469Z,14.70
2023-04-27T09:27:00.987Z,15.77
2023-04-27T09:28:00.537Z,14.81
2023-04-27T09:29:00.574Z,14.92
2023-04-27T09:30:00.763Z,15.60
2023-04-27T09:31:00.692Z,16.19
2023-04-27T09:32:00.793Z,16.45
2023-04-27T09:33:00.797Z,16.71
2023-04-27T09:34:00.839Z,16.03
2023-04-27T09:35:01.047Z,15.91
2023-04-27T09:36:00.911Z,16.59
2023-04-27T09:37:00.956Z,16.98
2023-04-27T09:38:01.004Z,17.41
2023-04-27T09:39:01.030Z,18.03
2023-04-27T09:40:01.106Z,15.28
2023-04-27T09:41:01.145Z,14.47
2023-04-27T09:42:01.269Z,16.03
2023-04-27T09:43:01.365Z,16.64
2023-04-27T09:44:01.362Z,17.31
2023-04-27T09:45:01.321Z,18.10
2023-04-27T09:46:01.396Z,18.38
2023-04-27T09:47:01.431Z,15.67
2023-04-27T09:48:01.544Z,16.33
2023-04-27T09:49:01.522Z,15.02
2023-04-27T09:50:01.571Z,15.94
2023-04-27T09:51:01.583Z,13.84
2023-04-27T09:52:01.594Z,15.64
2023-04-27T09:53:01.592Z,14.96
2023-04-27T09:54:01.679Z,15.54
2023-04-27T09:55:01.653Z,15.69
2023-04-27T09:56:01.719Z,16.22
2023-04-27T09:57:01.726Z,17.01
2023-04-27T09:58:01.775Z,18.32
2023-04-27T09:59:01.852Z,16.97
2023-04-27T10:00:01.926Z,14.11
2023-04-27T10:01:01.952Z,11.40
2023-04-27T10:02:09.949Z,11.72
2023-04-27T10:03:03.019Z,11.72
2023-04-27T10:04:02.090Z,11.94
2023-04-27T10:05:01.966Z,12.57
2023-04-27T10:06:01.942Z,13.98
2023-04-27T10:07:01.923Z,14.82
2023-04-27T10:08:01.927Z,15.66
2023-04-27T10:09:02.370Z,16.87
2023-04-27T10:10:01.911Z,17.63
2023-04-27T10:11:01.912Z,17.79
2023-04-27T10:12:01.888Z,17.91
2023-04-27T10:13:01.958Z,17.52
2023-04-27T10:14:01.900Z,15.84
2023-04-27T10:15:01.893Z,16.06
2023-04-27T10:16:01.902Z,14.64
2023-04-27T10:17:01.931Z,14.17
2023-04-27T10:18:01.938Z,14.77
2023-04-27T10:19:01.911Z,14.52
2023-04-27T10:20:01.952Z,14.77
2023-04-27T10:21:01.921Z,14.78
2023-04-27T10:22:01.894Z,14.54
2023-04-27T10:23:01.899Z,14.14
2023-04-27T10:24:01.902Z,14.01
2023-04-27T10:25:01.901Z,13.53
2023-04-27T10:26:01.901Z,13.03
2023-04-27T10:27:01.891Z,12.96
2023-04-27T10:28:01.932Z,12.66
2023-04-27T10:29:01.937Z,12.46
2023-04-27T10:30:01.915Z,12.34
2023-04-27T10:31:01.932Z,12.08
2023-04-27T10:32:01.934Z,12.04
2023-04-27T10:33:02.009Z,12.23
2023-04-27T10:34:01.964Z,11.94
2023-04-27T10:35:01.986Z,11.49
2023-04-27T10:36:01.998Z,11.65
2023-04-27T10:37:02.005Z,11.66
2023-04-27T10:38:02.018Z,11.55
2023-04-27T10:39:02.035Z,11.64
2023-04-27T10:40:02.049Z,11.30
2023-04-27T10:41:02.206Z,11.41
2023-04-27T10:42:02.094Z,11.24
2023-04-27T10:43:02.077Z,11.08
2023-04-27T10:44:02.159Z,11.00
2023-04-27T10:45:02.112Z,10.84
2023-04-27T10:46:02.141Z,11.07
2023-04-27T10:47:02.378Z,10.91
2023-04-27T10:48:02.341Z,10.88
2023-04-27T10:49:02.193Z,10.82
2023-04-27T10:50:02.255Z,10.63
2023-04-27T10:51:02.228Z,10.55
2023-04-27T10:52:02.245Z,10.48
2023-04-27T10:53:02.262Z,10.20
2023-04-27T10:54:02.288Z,10.52
2023-04-27T10:55:02.310Z,10.27
2023-04-27T10:56:02.406Z,10.44
2023-04-27T10:57:02.363Z,10.16
2023-04-27T10:58:02.458Z,10.21
2023-04-27T10:59:03.311Z,10.13
2023-04-27T11:00:02.467Z,9.97
2023-04-27T11:01:02.473Z,10.00
2023-04-27T11:02:02.615Z,10.04
2023-04-27T11:03:02.628Z,9.89
2023-04-27T11:04:02.560Z,9.93
2023-04-27T11:05:02.705Z,9.93
2023-04-27T11:06:02.625Z,9.84
2023-04-27T11:07:02.629Z,9.85
2023-04-27T11:08:02.663Z,9.80
2023-04-27T11:09:02.739Z,9.77
2023-04-27T11:10:02.765Z,10.00
2023-04-27T11:11:02.781Z,9.59
2023-04-27T11:12:02.812Z,9.52
2023-04-27T11:13:02.819Z,9.47
2023-04-27T11:14:02.889Z,9.27
2023-04-27T11:15:02.880Z,9.28
2023-04-27T11:16:02.947Z,9.34
2023-04-27T11:17:02.951Z,9.39
2023-04-27T11:18:03.000Z,9.17
2023-04-27T11:19:03.011Z,9.12
2023-04-27T11:20:03.062Z,9.11
2023-04-27T11:21:03.066Z,9.33
2023-04-27T11:22:03.110Z,9.17
2023-04-27T11:23:03.137Z,9.07
2023-04-27T11:24:03.175Z,9.15
2023-04-27T11:25:03.203Z,9.13
2023-04-27T11:26:03.217Z,8.27
2023-04-27T11:27:03.262Z,5.08
2023-04-27T11:28:03.324Z,3.01
2023-04-27T11:29:03.362Z,1.73
2023-04-27T11:30:03.419Z,1.21
2023-04-27T11:31:03.518Z,0.95
2023-04-27T11:32:03.582Z,0.72
2023-04-27T11:33:03.584Z,0.63
2023-04-27T11:34:04.031Z,0.49
2023-04-27T11:35:03.608Z,0.48
2023-04-27T11:36:03.603Z,0.46
2023-04-27T11:37:16.815Z,0.48
2023-04-27T11:38:04.645Z,0.35
2023-04-27T11:39:03.697Z,0.34
2023-04-27T11:40:03.598Z,0.34
2023-04-27T11:41:03.603Z,0.34
2023-04-27T11:42:03.581Z,0.34
2023-04-27T11:43:03.569Z,0.34
2023-04-27T11:44:03.577Z,0.34
2023-04-27T11:45:03.578Z,0.34
2023-04-27T11:46:03.564Z,0.34
2023-04-27T11:47:03.624Z,0.34
2023-04-27T11:48:03.568Z,0.34
2023-04-27T11:49:03.529Z,0.34
2023-04-27T11:50:03.554Z,0.34
2023-04-27T11:51:03.529Z,0.34
2023-04-27T11:52:03.509Z,0.39
2023-04-27T11:53:03.600Z,0.39
2023-04-27T11:54:04.502Z,0.49
2023-04-27T11:55:03.721Z,0.50
2023-04-27T11:56:03.744Z,0.52
2023-04-27T11:57:03.809Z,0.50
2023-04-27T11:58:03.901Z,0.52
2023-04-27T11:59:03.917Z,0.54
2023-04-27T12:00:03.962Z,0.54
2023-04-27T12:01:04.037Z,0.58
2023-04-27T12:02:04.203Z,0.59
2023-04-27T12:03:04.375Z,0.56
2023-04-27T12:04:04.481Z,0.54
2023-04-27T12:05:04.605Z,0.49
2023-04-27T12:06:21.544Z,0.50
2023-04-27T12:07:05.345Z,0.50
2023-04-27T12:08:04.283Z,0.47
2023-04-27T12:09:04.276Z,0.48
2023-04-27T12:10:04.266Z,0.44
2023-04-27T12:11:04.250Z,0.45
2023-04-27T12:12:04.256Z,0.52
2023-04-27T12:13:04.235Z,0.49
2023-04-27T12:14:04.236Z,0.51
2023-04-27T12:15:04.226Z,0.51
2023-04-27T12:16:04.326Z,0.53
2023-04-27T12:17:04.306Z,0.51
2023-04-27T12:18:04.252Z,0.58
2023-04-27T12:19:04.194Z,0.70
2023-04-27T12:20:04.208Z,0.59
2023-04-27T12:21:05.400Z,0.58
2023-04-27T12:22:04.184Z,0.56
2023-04-27T12:23:04.166Z,0.50
2023-04-27T12:24:04.152Z,0.52
2023-04-27T12:25:04.162Z,0.50
2023-04-27T12:26:04.151Z,0.52
2023-04-27T12:27:04.158Z,0.51
2023-04-27T12:28:04.150Z,0.51
2023-04-27T12:29:04.141Z,0.56
2023-04-27T12:30:04.133Z,0.60
2023-04-27T12:31:04.227Z,0.57
2023-04-27T12:32:04.124Z,0.57
2023-04-27T12:33:04.165Z,0.55
2023-04-27T12:34:04.107Z,0.65
2023-04-27T12:35:04.106Z,0.65
2023-04-27T12:36:04.100Z,0.61
2023-04-27T12:37:04.085Z,0.60
2023-04-27T12:38:04.116Z,0.66
2023-04-27T12:39:04.113Z,0.61
2023-04-27T12:40:04.137Z,0.65
2023-04-27T12:41:04.160Z,0.74
2023-04-27T12:42:04.173Z,0.70
2023-04-27T12:43:04.187Z,0.83
2023-04-27T12:44:04.184Z,0.86
2023-04-27T12:45:04.426Z,0.85
2023-04-27T12:46:04.255Z,0.81
2023-04-27T12:47:04.222Z,0.82
2023-04-27T12:48:04.598Z,0.87
2023-04-27T12:49:04.230Z,0.84
2023-04-27T12:50:04.231Z,0.83
2023-04-27T12:51:04.226Z,0.87
2023-04-27T12:52:04.229Z,0.89
2023-04-27T12:53:04.253Z,0.95
2023-04-27T12:54:04.233Z,1.11
2023-04-27T12:55:04.300Z,1.30
2023-04-27T12:56:04.307Z,1.46
2023-04-27T12:57:04.356Z,1.75
2023-04-27T12:58:04.402Z,1.92
2023-04-27T12:59:04.457Z,2.23
2023-04-27T13:00:04.507Z,2.71
2023-04-27T13:01:04.553Z,2.91
2023-04-27T13:02:04.671Z,3.24
2023-04-27T13:03:04.858Z,3.84
2023-04-27T13:04:04.870Z,4.41
2023-04-27T13:05:04.773Z,5.08
2023-04-27T13:06:04.760Z,5.52
2023-04-27T13:07:04.798Z,6.18
2023-04-27T13:08:04.828Z,6.69
2023-04-27T13:09:04.857Z,7.39
2023-04-27T13:10:04.874Z,8.01
2023-04-27T13:11:04.890Z,8.54
2023-04-27T13:12:05.002Z,8.96
2023-04-27T13:13:05.003Z,9.74